sensor_id;sensor_type;location;lat;lon;timestamp;temperature;humidity
10282;DHT22;5186;59.472;18.048;2023-01-08T00:01:52;3.30;99.90
10282;DHT22;5186;59.472;18.048;2023-01-08T00:04:17;3.20;99.90
10282;DHT22;5186;59.472;18.048;2023-01-08T00:06:43;3.30;99.90
10282;DHT22;5186;59.472;18.048;2023-01-08T00:09:12;3.30;99.90
10282;DHT22;5186;59.472;18.048;2023-01-08T00:11:38;3.30;99.90
10282;DHT22;5186;59.472;18.048;2023-01-08T00:14:03;3.30;99.90
10282;DHT22;5186;59.472;18.048;2023-01-08T00:16:29;3.30;99.90
10282;DHT22;5186;59.472;18.048;2023-01-08T00:18:55;3.30;99.90
10282;DHT22;5186;59.472;18.048;2023-01-08T00:21:20;3.30;99.90
10282;DHT22;5186;59.472;18.048;2023-01-08T00:23:46;3.30;99.90
10282;DHT22;5186;59.472;18.048;2023-01-08T00:26:12;3.30;99.90
10282;DHT22;5186;59.472;18.048;2023-01-08T00:28:39;3.30;99.90
10282;DHT22;5186;59.472;18.048;2023-01-08T00:31:06;3.30;99.90
10282;DHT22;5186;59.472;18.048;2023-01-08T00:33:31;3.30;99.90
10282;DHT22;5186;59.472;18.048;2023-01-08T00:35:57;3.30;99.90
10282;DHT22;5186;59.472;18.048;2023-01-08T00:38:27;3.40;99.90
10282;DHT22;5186;59.472;18.048;2023-01-08T00:40:53;3.40;99.90
10282;DHT22;5186;59.472;18.048;2023-01-08T00:43:19;3.40;99.90
10282;DHT22;5186;59.472;18.048;2023-01-08T00:45:45;3.40;99.90
10282;DHT22;5186;59.472;18.048;2023-01-08T00:48:11;3.40;99.90
10282;DHT22;5186;59.472;18.048;2023-01-08T00:50:36;3.30;99.90
10282;DHT22;5186;59.472;18.048;2023-01-08T00:53:02;3.40;99.90
10282;DHT22;5186;59.472;18.048;2023-01-08T00:55:29;3.30;99.90
10282;DHT22;5186;59.472;18.048;2023-01-08T00:57:54;3.40;99.90
10282;DHT22;5186;59.472;18.048;2023-01-08T01:00:22;3.40;99.90
10282;DHT22;5186;59.472;18.048;2023-01-08T01:02:48;3.40;99.90
10282;DHT22;5186;59.472;18.048;2023-01-08T01:05:14;3.40;99.90
10282;DHT22;5186;59.472;18.048;2023-01-08T01:07:41;3.40;99.90
10282;DHT22;5186;59.472;18.048;2023-01-08T01:10:08;3.40;99.90
10282;DHT22;5186;59.472;18.048;2023-01-08T01:12:36;3.40;99.90
10282;DHT22;5186;59.472;18.048;2023-01-08T01:15:02;3.40;99.90
10282;DHT22;5186;59.472;18.048;2023-01-08T01:17:27;3.40;99.90
10282;DHT22;5186;59.472;18.048;2023-01-08T01:19:53;3.40;99.90
10282;DHT22;5186;59.472;18.048;2023-01-08T01:22:18;3.50;99.90
10282;DHT22;5186;59.472;18.048;2023-01-08T01:24:44;3.50;99.90
10282;DHT22;5186;59.472;18.048;2023-01-08T01:27:09;3.50;99.90
10282;DHT22;5186;59.472;18.048;2023-01-08T01:29:35;3.50;99.90
10282;DHT22;5186;59.472;18.048;2023-01-08T01:32:01;3.50;99.90
10282;DHT22;5186;59.472;18.048;2023-01-08T01:34:26;3.50;99.90
10282;DHT22;5186;59.472;18.048;2023-01-08T01:36:52;3.50;99.90
10282;DHT22;5186;59.472;18.048;2023-01-08T01:39:17;3.50;99.90
10282;DHT22;5186;59.472;18.048;2023-01-08T01:41:45;3.50;99.90
10282;DHT22;5186;59.472;18.048;2023-01-08T01:47:00;3.50;99.90
10282;DHT22;5186;59.472;18.048;2023-01-08T01:49:27;3.50;99.90
10282;DHT22;5186;59.472;18.048;2023-01-08T01:51:55;3.50;99.90
10282;DHT22;5186;59.472;18.048;2023-01-08T01:54:21;3.50;99.90
10282;DHT22;5186;59.472;18.048;2023-01-08T01:56:48;3.50;99.90
10282;DHT22;5186;59.472;18.048;2023-01-08T01:59:14;3.50;99.90
10282;DHT22;5186;59.472;18.048;2023-01-08T02:01:41;3.50;99.90
10282;DHT22;5186;59.472;18.048;2023-01-08T02:04:13;3.50;99.90
10282;DHT22;5186;59.472;18.048;2023-01-08T02:07:09;3.50;99.90
10282;DHT22;5186;59.472;18.048;2023-01-08T02:09:57;3.50;99.90
10282;DHT22;5186;59.472;18.048;2023-01-08T02:12:31;3.50;99.90
10282;DHT22;5186;59.472;18.048;2023-01-08T02:20:30;3.60;99.90
10282;DHT22;5186;59.472;18.048;2023-01-08T02:28:31;3.60;99.90
10282;DHT22;5186;59.472;18.048;2023-01-08T02:30:59;3.60;99.90
10282;DHT22;5186;59.472;18.048;2023-01-08T02:33:27;3.60;99.90
10282;DHT22;5186;59.472;18.048;2023-01-08T02:36:15;3.60;99.90
10282;DHT22;5186;59.472;18.048;2023-01-08T02:41:54;3.60;99.90
10282;DHT22;5186;59.472;18.048;2023-01-08T02:44:34;3.60;99.90
10282;DHT22;5186;59.472;18.048;2023-01-08T02:47:05;3.60;99.90
10282;DHT22;5186;59.472;18.048;2023-01-08T02:49:34;3.60;99.90
10282;DHT22;5186;59.472;18.048;2023-01-08T02:52:05;3.60;99.90
10282;DHT22;5186;59.472;18.048;2023-01-08T02:54:33;3.60;99.90
10282;DHT22;5186;59.472;18.048;2023-01-08T02:57:14;3.60;99.90
10282;DHT22;5186;59.472;18.048;2023-01-08T02:59:42;3.60;99.90
10282;DHT22;5186;59.472;18.048;2023-01-08T03:02:09;3.60;99.90
10282;DHT22;5186;59.472;18.048;2023-01-08T03:04:39;3.60;99.90
10282;DHT22;5186;59.472;18.048;2023-01-08T03:07:07;3.60;99.90
10282;DHT22;5186;59.472;18.048;2023-01-08T03:09:32;3.70;99.90
10282;DHT22;5186;59.472;18.048;2023-01-08T03:12:03;3.70;99.90
10282;DHT22;5186;59.472;18.048;2023-01-08T03:14:58;3.70;99.90
10282;DHT22;5186;59.472;18.048;2023-01-08T03:17:34;3.70;99.90
10282;DHT22;5186;59.472;18.048;2023-01-08T03:20:21;3.60;99.90
10282;DHT22;5186;59.472;18.048;2023-01-08T03:22:52;3.60;99.90
10282;DHT22;5186;59.472;18.048;2023-01-08T03:25:19;3.70;99.90
10282;DHT22;5186;59.472;18.048;2023-01-08T03:27:49;3.70;99.90
10282;DHT22;5186;59.472;18.048;2023-01-08T03:30:17;3.70;99.90
10282;DHT22;5186;59.472;18.048;2023-01-08T03:32:44;3.70;99.90
10282;DHT22;5186;59.472;18.048;2023-01-08T03:35:14;3.80;99.90
10282;DHT22;5186;59.472;18.048;2023-01-08T03:37:44;3.80;99.90
10282;DHT22;5186;59.472;18.048;2023-01-08T03:40:18;3.80;99.90
10282;DHT22;5186;59.472;18.048;2023-01-08T03:42:45;3.80;99.90
10282;DHT22;5186;59.472;18.048;2023-01-08T03:45:11;3.80;99.90
10282;DHT22;5186;59.472;18.048;2023-01-08T03:47:38;3.80;99.90
10282;DHT22;5186;59.472;18.048;2023-01-08T03:50:08;3.80;99.90
10282;DHT22;5186;59.472;18.048;2023-01-08T03:52:35;3.90;99.90
10282;DHT22;5186;59.472;18.048;2023-01-08T03:55:00;3.90;99.90
10282;DHT22;5186;59.472;18.048;2023-01-08T03:57:26;3.90;99.90
10282;DHT22;5186;59.472;18.048;2023-01-08T03:59:51;3.90;99.90
10282;DHT22;5186;59.472;18.048;2023-01-08T04:02:17;3.90;99.90
10282;DHT22;5186;59.472;18.048;2023-01-08T04:04:43;3.90;99.90
10282;DHT22;5186;59.472;18.048;2023-01-08T04:07:10;3.90;99.90
10282;DHT22;5186;59.472;18.048;2023-01-08T04:09:35;3.90;99.90
10282;DHT22;5186;59.472;18.048;2023-01-08T04:12:01;4.00;99.90
10282;DHT22;5186;59.472;18.048;2023-01-08T04:14:26;4.00;99.90
10282;DHT22;5186;59.472;18.048;2023-01-08T04:16:52;3.90;99.90
10282;DHT22;5186;59.472;18.048;2023-01-08T04:19:18;4.00;99.90
10282;DHT22;5186;59.472;18.048;2023-01-08T04:21:43;4.00;99.90
10282;DHT22;5186;59.472;18.048;2023-01-08T04:24:10;3.90;99.90
10282;DHT22;5186;59.472;18.048;2023-01-08T04:26:36;4.00;99.90
10282;DHT22;5186;59.472;18.048;2023-01-08T04:29:02;4.00;99.90
10282;DHT22;5186;59.472;18.048;2023-01-08T04:31:28;4.00;99.90
10282;DHT22;5186;59.472;18.048;2023-01-08T04:33:54;4.00;99.90
10282;DHT22;5186;59.472;18.048;2023-01-08T04:36:19;4.00;99.90
10282;DHT22;5186;59.472;18.048;2023-01-08T04:38:45;4.00;99.90
10282;DHT22;5186;59.472;18.048;2023-01-08T04:41:10;4.00;99.90
10282;DHT22;5186;59.472;18.048;2023-01-08T04:43:36;4.00;99.90
10282;DHT22;5186;59.472;18.048;2023-01-08T04:46:03;4.10;99.90
10282;DHT22;5186;59.472;18.048;2023-01-08T04:48:31;4.10;99.90
10282;DHT22;5186;59.472;18.048;2023-01-08T04:50:58;4.10;99.90
10282;DHT22;5186;59.472;18.048;2023-01-08T04:53:24;4.10;99.90
10282;DHT22;5186;59.472;18.048;2023-01-08T04:55:50;4.10;99.90
10282;DHT22;5186;59.472;18.048;2023-01-08T04:58:15;4.10;99.90
10282;DHT22;5186;59.472;18.048;2023-01-08T05:00:41;4.10;99.90
10282;DHT22;5186;59.472;18.048;2023-01-08T05:03:07;4.10;99.90
10282;DHT22;5186;59.472;18.048;2023-01-08T05:05:33;4.10;99.90
10282;DHT22;5186;59.472;18.048;2023-01-08T05:07:58;4.10;99.90
10282;DHT22;5186;59.472;18.048;2023-01-08T05:10:24;4.10;99.90
10282;DHT22;5186;59.472;18.048;2023-01-08T05:12:50;4.10;99.90
10282;DHT22;5186;59.472;18.048;2023-01-08T05:15:15;4.10;99.90
10282;DHT22;5186;59.472;18.048;2023-01-08T05:17:41;4.10;99.90
10282;DHT22;5186;59.472;18.048;2023-01-08T05:20:07;4.10;99.90
10282;DHT22;5186;59.472;18.048;2023-01-08T05:22:33;4.20;99.90
10282;DHT22;5186;59.472;18.048;2023-01-08T05:24:59;4.20;99.90
10282;DHT22;5186;59.472;18.048;2023-01-08T05:27:24;4.20;99.90
10282;DHT22;5186;59.472;18.048;2023-01-08T05:29:50;4.20;99.90
10282;DHT22;5186;59.472;18.048;2023-01-08T05:32:17;4.20;99.90
10282;DHT22;5186;59.472;18.048;2023-01-08T05:34:44;4.30;99.90
10282;DHT22;5186;59.472;18.048;2023-01-08T05:37:10;4.20;99.90
10282;DHT22;5186;59.472;18.048;2023-01-08T05:39:36;4.30;99.90
10282;DHT22;5186;59.472;18.048;2023-01-08T05:42:02;4.30;99.90
10282;DHT22;5186;59.472;18.048;2023-01-08T05:44:28;4.30;99.90
10282;DHT22;5186;59.472;18.048;2023-01-08T05:46:54;4.30;99.90
10282;DHT22;5186;59.472;18.048;2023-01-08T05:49:19;4.30;99.90
10282;DHT22;5186;59.472;18.048;2023-01-08T05:51:46;4.30;99.90
10282;DHT22;5186;59.472;18.048;2023-01-08T05:54:12;4.30;99.90
10282;DHT22;5186;59.472;18.048;2023-01-08T05:56:38;4.30;99.90
10282;DHT22;5186;59.472;18.048;2023-01-08T05:59:04;4.30;99.90
10282;DHT22;5186;59.472;18.048;2023-01-08T06:01:31;4.40;99.90
10282;DHT22;5186;59.472;18.048;2023-01-08T06:03:57;4.30;99.90
10282;DHT22;5186;59.472;18.048;2023-01-08T06:06:23;4.30;99.90
10282;DHT22;5186;59.472;18.048;2023-01-08T06:08:49;4.40;99.90
10282;DHT22;5186;59.472;18.048;2023-01-08T06:11:14;4.40;99.90
10282;DHT22;5186;59.472;18.048;2023-01-08T06:13:41;4.40;99.90
10282;DHT22;5186;59.472;18.048;2023-01-08T06:16:08;4.30;99.90
10282;DHT22;5186;59.472;18.048;2023-01-08T06:18:34;4.40;99.90
10282;DHT22;5186;59.472;18.048;2023-01-08T06:21:01;4.40;99.90
10282;DHT22;5186;59.472;18.048;2023-01-08T06:23:26;4.40;99.90
10282;DHT22;5186;59.472;18.048;2023-01-08T06:25:53;4.40;99.90
10282;DHT22;5186;59.472;18.048;2023-01-08T06:28:19;4.40;99.90
10282;DHT22;5186;59.472;18.048;2023-01-08T06:30:45;4.40;99.90
10282;DHT22;5186;59.472;18.048;2023-01-08T06:33:11;4.40;99.90
10282;DHT22;5186;59.472;18.048;2023-01-08T06:35:36;4.40;99.90
10282;DHT22;5186;59.472;18.048;2023-01-08T06:38:02;4.50;99.90
10282;DHT22;5186;59.472;18.048;2023-01-08T06:40:27;4.40;99.90
10282;DHT22;5186;59.472;18.048;2023-01-08T06:42:53;4.50;99.90
10282;DHT22;5186;59.472;18.048;2023-01-08T06:45:19;4.50;99.90
10282;DHT22;5186;59.472;18.048;2023-01-08T06:47:44;4.50;99.90
10282;DHT22;5186;59.472;18.048;2023-01-08T06:50:10;4.50;99.90
10282;DHT22;5186;59.472;18.048;2023-01-08T06:52:37;4.50;99.90
10282;DHT22;5186;59.472;18.048;2023-01-08T06:55:03;4.50;99.90
10282;DHT22;5186;59.472;18.048;2023-01-08T06:57:29;4.50;99.90
10282;DHT22;5186;59.472;18.048;2023-01-08T06:59:55;4.50;99.90
10282;DHT22;5186;59.472;18.048;2023-01-08T07:02:20;4.50;99.90
10282;DHT22;5186;59.472;18.048;2023-01-08T07:04:46;4.50;99.90
10282;DHT22;5186;59.472;18.048;2023-01-08T07:07:12;4.50;99.90
10282;DHT22;5186;59.472;18.048;2023-01-08T07:09:39;4.50;99.90
10282;DHT22;5186;59.472;18.048;2023-01-08T07:12:05;4.50;99.90
10282;DHT22;5186;59.472;18.048;2023-01-08T07:14:33;4.50;99.90
10282;DHT22;5186;59.472;18.048;2023-01-08T07:16:58;4.50;99.90
10282;DHT22;5186;59.472;18.048;2023-01-08T07:19:24;4.60;99.90
10282;DHT22;5186;59.472;18.048;2023-01-08T07:21:49;4.60;99.90
10282;DHT22;5186;59.472;18.048;2023-01-08T07:24:15;4.50;99.90
10282;DHT22;5186;59.472;18.048;2023-01-08T07:26:41;4.50;99.90
10282;DHT22;5186;59.472;18.048;2023-01-08T07:29:06;4.60;99.90
10282;DHT22;5186;59.472;18.048;2023-01-08T07:31:32;4.60;99.90
10282;DHT22;5186;59.472;18.048;2023-01-08T07:33:57;4.60;99.90
10282;DHT22;5186;59.472;18.048;2023-01-08T07:36:23;4.60;99.90
10282;DHT22;5186;59.472;18.048;2023-01-08T07:38:49;4.60;99.90
10282;DHT22;5186;59.472;18.048;2023-01-08T07:41:16;4.60;99.90
10282;DHT22;5186;59.472;18.048;2023-01-08T07:43:41;4.60;99.90
10282;DHT22;5186;59.472;18.048;2023-01-08T07:46:07;4.60;99.90
10282;DHT22;5186;59.472;18.048;2023-01-08T07:48:33;4.60;99.90
10282;DHT22;5186;59.472;18.048;2023-01-08T07:51:06;4.70;99.90
10282;DHT22;5186;59.472;18.048;2023-01-08T07:53:32;4.70;99.90
10282;DHT22;5186;59.472;18.048;2023-01-08T07:56:08;4.70;99.90
10282;DHT22;5186;59.472;18.048;2023-01-08T07:58:35;4.70;99.90
10282;DHT22;5186;59.472;18.048;2023-01-08T08:01:01;4.70;99.90
10282;DHT22;5186;59.472;18.048;2023-01-08T08:03:26;4.70;99.90
10282;DHT22;5186;59.472;18.048;2023-01-08T08:05:52;4.70;99.90
10282;DHT22;5186;59.472;18.048;2023-01-08T08:08:18;4.70;99.90
10282;DHT22;5186;59.472;18.048;2023-01-08T08:10:44;4.80;99.90
10282;DHT22;5186;59.472;18.048;2023-01-08T08:13:11;4.80;99.90
10282;DHT22;5186;59.472;18.048;2023-01-08T08:15:37;4.80;99.90
10282;DHT22;5186;59.472;18.048;2023-01-08T08:18:04;4.80;99.90
10282;DHT22;5186;59.472;18.048;2023-01-08T08:20:30;4.80;99.90
10282;DHT22;5186;59.472;18.048;2023-01-08T08:23:03;4.80;99.90
10282;DHT22;5186;59.472;18.048;2023-01-08T08:25:29;4.80;99.90
10282;DHT22;5186;59.472;18.048;2023-01-08T08:27:57;4.90;99.90
10282;DHT22;5186;59.472;18.048;2023-01-08T08:30:23;4.90;99.90
10282;DHT22;5186;59.472;18.048;2023-01-08T08:32:49;4.90;99.90
10282;DHT22;5186;59.472;18.048;2023-01-08T08:35:14;4.90;99.90
10282;DHT22;5186;59.472;18.048;2023-01-08T08:37:40;5.00;99.90
10282;DHT22;5186;59.472;18.048;2023-01-08T08:40:06;5.00;99.90
10282;DHT22;5186;59.472;18.048;2023-01-08T08:42:32;5.00;99.90
10282;DHT22;5186;59.472;18.048;2023-01-08T08:44:58;5.00;99.90
10282;DHT22;5186;59.472;18.048;2023-01-08T08:47:23;5.00;99.90
10282;DHT22;5186;59.472;18.048;2023-01-08T08:49:49;5.00;99.90
10282;DHT22;5186;59.472;18.048;2023-01-08T08:52:14;5.00;99.90
10282;DHT22;5186;59.472;18.048;2023-01-08T08:54:40;5.00;99.90
10282;DHT22;5186;59.472;18.048;2023-01-08T08:57:07;5.00;99.90
10282;DHT22;5186;59.472;18.048;2023-01-08T08:59:33;5.00;99.90
10282;DHT22;5186;59.472;18.048;2023-01-08T09:01:59;5.10;99.90
10282;DHT22;5186;59.472;18.048;2023-01-08T09:04:24;5.10;99.90
10282;DHT22;5186;59.472;18.048;2023-01-08T09:06:50;5.10;99.90
10282;DHT22;5186;59.472;18.048;2023-01-08T09:09:16;5.10;99.90
10282;DHT22;5186;59.472;18.048;2023-01-08T09:11:42;5.10;99.90
10282;DHT22;5186;59.472;18.048;2023-01-08T09:14:08;5.10;99.90
10282;DHT22;5186;59.472;18.048;2023-01-08T09:16:34;5.10;99.90
10282;DHT22;5186;59.472;18.048;2023-01-08T09:19:01;5.10;99.90
10282;DHT22;5186;59.472;18.048;2023-01-08T09:21:27;5.20;99.90
10282;DHT22;5186;59.472;18.048;2023-01-08T09:23:53;5.20;99.90
10282;DHT22;5186;59.472;18.048;2023-01-08T09:26:18;5.10;99.90
10282;DHT22;5186;59.472;18.048;2023-01-08T09:28:44;5.20;99.90
10282;DHT22;5186;59.472;18.048;2023-01-08T09:31:10;5.20;99.90
10282;DHT22;5186;59.472;18.048;2023-01-08T09:33:35;5.20;99.90
10282;DHT22;5186;59.472;18.048;2023-01-08T09:36:01;5.20;99.90
10282;DHT22;5186;59.472;18.048;2023-01-08T09:38:26;5.20;99.90
10282;DHT22;5186;59.472;18.048;2023-01-08T09:40:59;5.30;99.90
10282;DHT22;5186;59.472;18.048;2023-01-08T09:43:28;5.30;99.90
10282;DHT22;5186;59.472;18.048;2023-01-08T09:45:58;5.30;99.90
10282;DHT22;5186;59.472;18.048;2023-01-08T09:48:27;5.30;99.90
10282;DHT22;5186;59.472;18.048;2023-01-08T09:50:55;5.30;99.90
10282;DHT22;5186;59.472;18.048;2023-01-08T09:53:21;5.30;99.90
10282;DHT22;5186;59.472;18.048;2023-01-08T09:56:01;5.30;99.90
10282;DHT22;5186;59.472;18.048;2023-01-08T10:01:17;5.40;99.90
10282;DHT22;5186;59.472;18.048;2023-01-08T10:03:52;5.40;99.90
10282;DHT22;5186;59.472;18.048;2023-01-08T10:06:22;5.40;99.90
10282;DHT22;5186;59.472;18.048;2023-01-08T10:08:50;5.50;99.90
10282;DHT22;5186;59.472;18.048;2023-01-08T10:11:16;5.50;99.90
10282;DHT22;5186;59.472;18.048;2023-01-08T10:13:49;5.40;99.90
10282;DHT22;5186;59.472;18.048;2023-01-08T10:16:32;5.50;99.90
10282;DHT22;5186;59.472;18.048;2023-01-08T10:19:02;5.50;99.90
10282;DHT22;5186;59.472;18.048;2023-01-08T10:21:31;5.50;99.90
10282;DHT22;5186;59.472;18.048;2023-01-08T10:23:57;5.50;99.90
10282;DHT22;5186;59.472;18.048;2023-01-08T10:26:28;5.50;99.90
10282;DHT22;5186;59.472;18.048;2023-01-08T10:29:15;5.60;99.90
10282;DHT22;5186;59.472;18.048;2023-01-08T10:31:55;5.50;99.90
10282;DHT22;5186;59.472;18.048;2023-01-08T10:34:42;5.60;99.90
10282;DHT22;5186;59.472;18.048;2023-01-08T10:37:25;5.60;99.90
10282;DHT22;5186;59.472;18.048;2023-01-08T10:39:52;5.60;99.90
10282;DHT22;5186;59.472;18.048;2023-01-08T10:42:20;5.70;99.90
10282;DHT22;5186;59.472;18.048;2023-01-08T10:44:54;5.60;99.90
10282;DHT22;5186;59.472;18.048;2023-01-08T10:47:22;5.70;99.90
10282;DHT22;5186;59.472;18.048;2023-01-08T10:49:48;5.60;99.90
10282;DHT22;5186;59.472;18.048;2023-01-08T10:52:33;5.70;99.90
10282;DHT22;5186;59.472;18.048;2023-01-08T10:58:10;5.70;99.90
10282;DHT22;5186;59.472;18.048;2023-01-08T11:00:38;5.70;99.90
10282;DHT22;5186;59.472;18.048;2023-01-08T11:03:06;5.70;99.90
10282;DHT22;5186;59.472;18.048;2023-01-08T11:05:39;5.70;99.90
10282;DHT22;5186;59.472;18.048;2023-01-08T11:08:13;5.70;99.90
10282;DHT22;5186;59.472;18.048;2023-01-08T11:10:40;5.70;99.90
10282;DHT22;5186;59.472;18.048;2023-01-08T11:13:06;5.70;99.90
10282;DHT22;5186;59.472;18.048;2023-01-08T11:15:39;5.70;99.90
10282;DHT22;5186;59.472;18.048;2023-01-08T11:18:24;5.70;99.90
10282;DHT22;5186;59.472;18.048;2023-01-08T11:20:52;5.80;99.90
10282;DHT22;5186;59.472;18.048;2023-01-08T11:23:22;5.80;99.90
10282;DHT22;5186;59.472;18.048;2023-01-08T11:26:02;5.70;99.90
10282;DHT22;5186;59.472;18.048;2023-01-08T11:32:28;5.70;99.90
10282;DHT22;5186;59.472;18.048;2023-01-08T11:34:33;5.70;99.90
10282;DHT22;5186;59.472;18.048;2023-01-08T11:37:19;5.70;99.90
10282;DHT22;5186;59.472;18.048;2023-01-08T11:39:45;5.80;99.90
10282;DHT22;5186;59.472;18.048;2023-01-08T11:42:19;5.70;99.90
10282;DHT22;5186;59.472;18.048;2023-01-08T11:50:43;5.70;99.90
10282;DHT22;5186;59.472;18.048;2023-01-08T11:53:23;5.70;99.90
10282;DHT22;5186;59.472;18.048;2023-01-08T11:56:15;5.70;99.90
10282;DHT22;5186;59.472;18.048;2023-01-08T11:58:52;5.70;99.90
10282;DHT22;5186;59.472;18.048;2023-01-08T12:01:30;5.70;99.90
10282;DHT22;5186;59.472;18.048;2023-01-08T12:04:31;5.70;99.90
10282;DHT22;5186;59.472;18.048;2023-01-08T12:10:19;5.70;99.90
10282;DHT22;5186;59.472;18.048;2023-01-08T12:16:19;5.80;99.90
10282;DHT22;5186;59.472;18.048;2023-01-08T12:21:44;5.70;99.90
10282;DHT22;5186;59.472;18.048;2023-01-08T12:32:31;5.80;99.90
10282;DHT22;5186;59.472;18.048;2023-01-08T12:35:38;5.80;99.90
10282;DHT22;5186;59.472;18.048;2023-01-08T12:38:43;5.80;99.90
10282;DHT22;5186;59.472;18.048;2023-01-08T12:41:13;5.80;99.90
10282;DHT22;5186;59.472;18.048;2023-01-08T12:46:17;5.80;99.90
10282;DHT22;5186;59.472;18.048;2023-01-08T12:48:45;5.80;99.90
10282;DHT22;5186;59.472;18.048;2023-01-08T12:54:15;5.80;99.90
10282;DHT22;5186;59.472;18.048;2023-01-08T12:56:54;5.80;99.90
10282;DHT22;5186;59.472;18.048;2023-01-08T12:59:43;5.80;99.90
10282;DHT22;5186;59.472;18.048;2023-01-08T13:03:03;5.80;99.90
10282;DHT22;5186;59.472;18.048;2023-01-08T13:07:53;5.80;99.90
10282;DHT22;5186;59.472;18.048;2023-01-08T13:10:39;5.80;99.90
10282;DHT22;5186;59.472;18.048;2023-01-08T13:13:07;5.80;99.90
10282;DHT22;5186;59.472;18.048;2023-01-08T13:15:34;5.80;99.90
10282;DHT22;5186;59.472;18.048;2023-01-08T13:18:18;5.80;99.90
10282;DHT22;5186;59.472;18.048;2023-01-08T13:20:58;5.80;99.90
10282;DHT22;5186;59.472;18.048;2023-01-08T13:23:33;5.80;99.90
10282;DHT22;5186;59.472;18.048;2023-01-08T13:26:05;5.80;99.90
10282;DHT22;5186;59.472;18.048;2023-01-08T13:33:47;5.80;99.90
10282;DHT22;5186;59.472;18.048;2023-01-08T13:36:16;5.80;99.90
10282;DHT22;5186;59.472;18.048;2023-01-08T13:38:43;5.80;99.90
10282;DHT22;5186;59.472;18.048;2023-01-08T13:44:01;5.80;99.90
10282;DHT22;5186;59.472;18.048;2023-01-08T13:46:31;5.80;99.90
10282;DHT22;5186;59.472;18.048;2023-01-08T13:49:09;5.80;99.90
10282;DHT22;5186;59.472;18.048;2023-01-08T13:51:45;5.80;99.90
10282;DHT22;5186;59.472;18.048;2023-01-08T13:56:38;5.80;99.90
10282;DHT22;5186;59.472;18.048;2023-01-08T13:59:04;5.80;99.90
10282;DHT22;5186;59.472;18.048;2023-01-08T14:01:30;5.80;99.90
10282;DHT22;5186;59.472;18.048;2023-01-08T14:03:56;5.80;99.90
10282;DHT22;5186;59.472;18.048;2023-01-08T14:06:24;5.80;99.90
10282;DHT22;5186;59.472;18.048;2023-01-08T14:08:55;5.90;99.90
10282;DHT22;5186;59.472;18.048;2023-01-08T14:11:24;5.90;99.90
10282;DHT22;5186;59.472;18.048;2023-01-08T14:13:51;5.90;99.90
10282;DHT22;5186;59.472;18.048;2023-01-08T14:16:17;5.80;99.90
10282;DHT22;5186;59.472;18.048;2023-01-08T14:18:45;5.80;99.90
10282;DHT22;5186;59.472;18.048;2023-01-08T14:21:11;5.80;99.90
10282;DHT22;5186;59.472;18.048;2023-01-08T14:23:45;5.80;99.90
10282;DHT22;5186;59.472;18.048;2023-01-08T14:26:23;5.80;99.90
10282;DHT22;5186;59.472;18.048;2023-01-08T14:28:53;5.80;99.90
10282;DHT22;5186;59.472;18.048;2023-01-08T14:31:24;5.80;99.90
10282;DHT22;5186;59.472;18.048;2023-01-08T14:33:55;5.80;99.90
10282;DHT22;5186;59.472;18.048;2023-01-08T14:36:22;5.80;99.90
10282;DHT22;5186;59.472;18.048;2023-01-08T14:38:48;5.80;99.90
10282;DHT22;5186;59.472;18.048;2023-01-08T14:41:34;5.80;99.90
10282;DHT22;5186;59.472;18.048;2023-01-08T14:44:20;5.80;99.90
10282;DHT22;5186;59.472;18.048;2023-01-08T14:46:46;5.70;99.90
10282;DHT22;5186;59.472;18.048;2023-01-08T14:49:39;5.70;99.90
10282;DHT22;5186;59.472;18.048;2023-01-08T14:52:10;5.70;99.90
10282;DHT22;5186;59.472;18.048;2023-01-08T14:54:37;5.70;99.90
10282;DHT22;5186;59.472;18.048;2023-01-08T14:57:03;5.70;99.90
10282;DHT22;5186;59.472;18.048;2023-01-08T14:59:34;5.70;99.90
10282;DHT22;5186;59.472;18.048;2023-01-08T15:02:04;5.70;99.90
10282;DHT22;5186;59.472;18.048;2023-01-08T15:04:30;5.70;99.90
10282;DHT22;5186;59.472;18.048;2023-01-08T15:07:17;5.70;99.90
10282;DHT22;5186;59.472;18.048;2023-01-08T15:09:54;5.70;99.90
10282;DHT22;5186;59.472;18.048;2023-01-08T15:12:28;5.70;99.90
10282;DHT22;5186;59.472;18.048;2023-01-08T15:15:10;5.60;99.90
10282;DHT22;5186;59.472;18.048;2023-01-08T15:17:38;5.60;99.90
10282;DHT22;5186;59.472;18.048;2023-01-08T15:20:04;5.70;99.90
10282;DHT22;5186;59.472;18.048;2023-01-08T15:22:31;5.70;99.90
10282;DHT22;5186;59.472;18.048;2023-01-08T15:24:59;5.70;99.90
10282;DHT22;5186;59.472;18.048;2023-01-08T15:27:26;5.70;99.90
10282;DHT22;5186;59.472;18.048;2023-01-08T15:29:54;5.70;99.90
10282;DHT22;5186;59.472;18.048;2023-01-08T15:32:32;5.70;99.90
10282;DHT22;5186;59.472;18.048;2023-01-08T15:34:59;5.60;99.90
10282;DHT22;5186;59.472;18.048;2023-01-08T15:37:25;5.60;99.90
10282;DHT22;5186;59.472;18.048;2023-01-08T15:39:52;5.60;99.90
10282;DHT22;5186;59.472;18.048;2023-01-08T15:42:27;5.70;99.90
10282;DHT22;5186;59.472;18.048;2023-01-08T15:45:18;5.60;99.90
10282;DHT22;5186;59.472;18.048;2023-01-08T15:47:43;5.60;99.90
10282;DHT22;5186;59.472;18.048;2023-01-08T15:50:10;5.60;99.90
10282;DHT22;5186;59.472;18.048;2023-01-08T15:52:37;5.60;99.90
10282;DHT22;5186;59.472;18.048;2023-01-08T15:55:05;5.70;99.90
10282;DHT22;5186;59.472;18.048;2023-01-08T15:57:31;5.60;99.90
10282;DHT22;5186;59.472;18.048;2023-01-08T15:59:57;5.60;99.90
10282;DHT22;5186;59.472;18.048;2023-01-08T16:02:23;5.60;99.90
10282;DHT22;5186;59.472;18.048;2023-01-08T16:04:53;5.60;99.90
10282;DHT22;5186;59.472;18.048;2023-01-08T16:07:19;5.60;99.90
10282;DHT22;5186;59.472;18.048;2023-01-08T16:09:44;5.70;99.90
10282;DHT22;5186;59.472;18.048;2023-01-08T16:12:10;5.70;99.90
10282;DHT22;5186;59.472;18.048;2023-01-08T16:14:35;5.70;99.90
10282;DHT22;5186;59.472;18.048;2023-01-08T16:17:03;5.70;99.90
10282;DHT22;5186;59.472;18.048;2023-01-08T16:19:29;5.70;99.90
10282;DHT22;5186;59.472;18.048;2023-01-08T16:21:55;5.70;99.90
10282;DHT22;5186;59.472;18.048;2023-01-08T16:24:21;5.70;99.90
10282;DHT22;5186;59.472;18.048;2023-01-08T16:26:47;5.70;99.90
10282;DHT22;5186;59.472;18.048;2023-01-08T16:29:12;5.60;99.90
10282;DHT22;5186;59.472;18.048;2023-01-08T16:31:42;5.60;99.90
10282;DHT22;5186;59.472;18.048;2023-01-08T16:34:08;5.60;99.90
10282;DHT22;5186;59.472;18.048;2023-01-08T16:36:34;5.60;99.90
10282;DHT22;5186;59.472;18.048;2023-01-08T16:39:00;5.60;99.90
10282;DHT22;5186;59.472;18.048;2023-01-08T16:41:26;5.60;99.90
10282;DHT22;5186;59.472;18.048;2023-01-08T16:43:51;5.60;99.90
10282;DHT22;5186;59.472;18.048;2023-01-08T16:46:17;5.60;99.90
10282;DHT22;5186;59.472;18.048;2023-01-08T16:48:43;5.60;99.90
10282;DHT22;5186;59.472;18.048;2023-01-08T16:51:09;5.60;99.90
10282;DHT22;5186;59.472;18.048;2023-01-08T16:53:36;5.60;99.90
10282;DHT22;5186;59.472;18.048;2023-01-08T16:56:02;5.60;99.90
10282;DHT22;5186;59.472;18.048;2023-01-08T16:58:29;5.60;99.90
10282;DHT22;5186;59.472;18.048;2023-01-08T17:00:56;5.60;99.90
10282;DHT22;5186;59.472;18.048;2023-01-08T17:03:22;5.50;99.90
10282;DHT22;5186;59.472;18.048;2023-01-08T17:05:48;5.50;99.90